sensor_id;sensor_type;location;lat;lon;timestamp;pressure;altitude;pressure_sealevel;temperature;humidity
48874;BME280;66155;46.204;5.220;2023-04-06T00:02:13;98962.78;;;9.43;37.92
48874;BME280;66155;46.204;5.220;2023-04-06T00:07:13;98957.00;;;9.41;38.12
48874;BME280;66155;46.204;5.220;2023-04-06T00:12:14;98972.84;;;8.99;39.32
48874;BME280;66155;46.204;5.220;2023-04-06T00:17:14;98952.50;;;8.84;38.64
48874;BME280;66155;46.204;5.220;2023-04-06T00:22:15;98947.75;;;8.93;38.95
48874;BME280;66155;46.204;5.220;2023-04-06T00:27:15;98941.06;;;8.97;39.44
48874;BME280;66155;46.204;5.220;2023-04-06T00:32:15;98944.81;;;9.01;40.38
48874;BME280;66155;46.204;5.220;2023-04-06T00:37:16;98935.19;;;9.02;39.68
48874;BME280;66155;46.204;5.220;2023-04-06T00:42:16;98932.47;;;8.97;40.17
48874;BME280;66155;46.204;5.220;2023-04-06T00:47:18;98931.25;;;8.87;40.43
48874;BME280;66155;46.204;5.220;2023-04-06T00:52:18;98933.09;;;8.75;40.15
48874;BME280;66155;46.204;5.220;2023-04-06T00:57:19;98939.53;;;8.72;40.62
48874;BME280;66155;46.204;5.220;2023-04-06T01:02:20;98929.50;;;8.64;40.88
48874;BME280;66155;46.204;5.220;2023-04-06T01:07:20;98928.94;;;8.50;41.45
48874;BME280;66155;46.204;5.220;2023-04-06T01:12:20;98923.25;;;8.42;41.37
48874;BME280;66155;46.204;5.220;2023-04-06T01:17:21;98919.97;;;8.34;41.21
48874;BME280;66155;46.204;5.220;2023-04-06T01:22:21;98913.00;;;8.35;41.55
48874;BME280;66155;46.204;5.220;2023-04-06T01:27:21;98905.44;;;8.33;41.43
48874;BME280;66155;46.204;5.220;2023-04-06T01:32:22;98905.44;;;8.33;41.71
48874;BME280;66155;46.204;5.220;2023-04-06T01:37:22;98908.91;;;8.27;41.46
48874;BME280;66155;46.204;5.220;2023-04-06T01:42:22;98900.56;;;8.25;41.93
48874;BME280;66155;46.204;5.220;2023-04-06T01:47:23;98909.16;;;8.14;42.38
48874;BME280;66155;46.204;5.220;2023-04-06T01:52:25;98909.69;;;8.04;42.14
48874;BME280;66155;46.204;5.220;2023-04-06T01:57:25;98905.84;;;7.95;42.39
48874;BME280;66155;46.204;5.220;2023-04-06T02:02:26;98903.91;;;7.90;42.23
48874;BME280;66155;46.204;5.220;2023-04-06T02:07:26;98905.38;;;7.86;43.19
48874;BME280;66155;46.204;5.220;2023-04-06T02:12:26;98902.56;;;7.88;42.60
48874;BME280;66155;46.204;5.220;2023-04-06T02:17:28;98910.78;;;7.85;42.76
48874;BME280;66155;46.204;5.220;2023-04-06T02:22:28;98911.34;;;7.75;43.02
48874;BME280;66155;46.204;5.220;2023-04-06T02:27:28;98909.19;;;7.72;43.26
48874;BME280;66155;46.204;5.220;2023-04-06T02:32:29;98907.94;;;7.63;42.97
48874;BME280;66155;46.204;5.220;2023-04-06T02:37:29;98908.78;;;7.56;43.33
48874;BME280;66155;46.204;5.220;2023-04-06T02:42:29;98904.94;;;7.47;43.69
48874;BME280;66155;46.204;5.220;2023-04-06T02:47:30;98909.78;;;7.43;43.70
48874;BME280;66155;46.204;5.220;2023-04-06T02:52:30;98899.06;;;7.40;43.84
48874;BME280;66155;46.204;5.220;2023-04-06T02:57:30;98906.47;;;7.36;44.20
48874;BME280;66155;46.204;5.220;2023-04-06T03:02:31;98902.19;;;7.30;44.62
48874;BME280;66155;46.204;5.220;2023-04-06T03:07:31;98903.19;;;7.29;43.93
48874;BME280;66155;46.204;5.220;2023-04-06T03:12:31;98887.28;;;7.26;44.67
48874;BME280;66155;46.204;5.220;2023-04-06T03:17:32;98895.69;;;7.21;44.22
48874;BME280;66155;46.204;5.220;2023-04-06T03:22:32;98892.19;;;7.15;44.53
48874;BME280;66155;46.204;5.220;2023-04-06T03:27:32;98895.81;;;7.14;44.46
48874;BME280;66155;46.204;5.220;2023-04-06T03:32:33;98898.16;;;7.16;44.39
48874;BME280;66155;46.204;5.220;2023-04-06T03:37:33;98902.13;;;7.18;44.43
48874;BME280;66155;46.204;5.220;2023-04-06T03:42:33;98900.38;;;7.12;44.36
48874;BME280;66155;46.204;5.220;2023-04-06T03:47:34;98900.72;;;7.04;44.25
48874;BME280;66155;46.204;5.220;2023-04-06T03:52:35;98904.97;;;6.98;44.21
48874;BME280;66155;46.204;5.220;2023-04-06T03:57:35;98906.16;;;6.96;44.46
48874;BME280;66155;46.204;5.220;2023-04-06T04:02:35;98903.44;;;6.91;44.78
48874;BME280;66155;46.204;5.220;2023-04-06T04:07:35;98910.41;;;6.90;44.51
48874;BME280;66155;46.204;5.220;2023-04-06T04:12:36;98900.59;;;6.80;44.90
48874;BME280;66155;46.204;5.220;2023-04-06T04:17:36;98916.19;;;6.74;44.69
48874;BME280;66155;46.204;5.220;2023-04-06T04:22:37;98919.19;;;6.71;44.41
48874;BME280;66155;46.204;5.220;2023-04-06T04:27:37;98916.19;;;6.74;44.64
48874;BME280;66155;46.204;5.220;2023-04-06T04:32:37;98926.75;;;6.72;45.12
48874;BME280;66155;46.204;5.220;2023-04-06T04:37:37;98926.69;;;6.79;45.01
48874;BME280;66155;46.204;5.220;2023-04-06T04:42:38;98932.03;;;6.84;44.90
48874;BME280;66155;46.204;5.220;2023-04-06T04:47:38;98934.50;;;6.91;45.03
48874;BME280;66155;46.204;5.220;2023-04-06T04:52:39;98934.97;;;6.88;45.10
48874;BME280;66155;46.204;5.220;2023-04-06T04:57:39;98931.94;;;6.91;45.09
48874;BME280;66155;46.204;5.220;2023-04-06T05:02:40;98933.88;;;6.95;44.99
48874;BME280;66155;46.204;5.220;2023-04-06T05:07:40;98935.69;;;6.95;45.12
48874;BME280;66155;46.204;5.220;2023-04-06T05:12:40;98939.69;;;6.91;45.38
48874;BME280;66155;46.204;5.220;2023-04-06T05:17:41;98930.44;;;6.83;45.44
48874;BME280;66155;46.204;5.220;2023-04-06T05:22:41;98935.03;;;6.81;45.55
48874;BME280;66155;46.204;5.220;2023-04-06T05:27:42;98928.84;;;6.82;45.38
48874;BME280;66155;46.204;5.220;2023-04-06T05:32:42;98932.22;;;6.82;45.54
48874;BME280;66155;46.204;5.220;2023-04-06T05:37:44;98939.56;;;6.85;45.42
48874;BME280;66155;46.204;5.220;2023-04-06T05:42:44;98937.69;;;6.74;45.78
48874;BME280;66155;46.204;5.220;2023-04-06T05:47:44;98943.13;;;6.66;45.73
48874;BME280;66155;46.204;5.220;2023-04-06T05:52:45;98946.81;;;6.58;45.79
48874;BME280;66155;46.204;5.220;2023-04-06T05:57:46;98947.72;;;6.64;45.67
48874;BME280;66155;46.204;5.220;2023-04-06T06:02:46;98947.69;;;6.71;46.00
48874;BME280;66155;46.204;5.220;2023-04-06T06:07:47;98951.34;;;6.81;45.71
48874;BME280;66155;46.204;5.220;2023-04-06T06:12:47;98945.81;;;6.78;45.97
48874;BME280;66155;46.204;5.220;2023-04-06T06:17:48;98953.22;;;6.93;45.77
48874;BME280;66155;46.204;5.220;2023-04-06T06:22:48;98951.44;;;7.12;45.64
48874;BME280;66155;46.204;5.220;2023-04-06T06:27:49;98964.59;;;7.29;45.43
48874;BME280;66155;46.204;5.220;2023-04-06T06:32:49;98975.50;;;7.49;44.86
48874;BME280;66155;46.204;5.220;2023-04-06T06:37:50;98971.25;;;7.55;44.77
48874;BME280;66155;46.204;5.220;2023-04-06T06:43:43;98980.31;;;7.64;44.22
48874;BME280;66155;46.204;5.220;2023-04-06T06:48:44;98980.47;;;7.81;43.92
48874;BME280;66155;46.204;5.220;2023-04-06T06:53:45;98979.28;;;7.95;43.80
48874;BME280;66155;46.204;5.220;2023-04-06T06:58:45;98976.69;;;7.95;43.77
48874;BME280;66155;46.204;5.220;2023-04-06T07:03:46;98979.63;;;7.99;43.85
48874;BME280;66155;46.204;5.220;2023-04-06T07:08:46;98973.00;;;8.03;43.68
48874;BME280;66155;46.204;5.220;2023-04-06T07:13:47;98980.22;;;8.13;43.67
48874;BME280;66155;46.204;5.220;2023-04-06T07:18:47;98984.88;;;8.23;43.75
48874;BME280;66155;46.204;5.220;2023-04-06T07:23:48;98988.16;;;8.30;43.15
48874;BME280;66155;46.204;5.220;2023-04-06T07:28:48;98995.88;;;8.48;43.12
48874;BME280;66155;46.204;5.220;2023-04-06T07:33:49;99003.13;;;8.70;42.87
48874;BME280;66155;46.204;5.220;2023-04-06T07:38:50;99009.53;;;8.79;42.79
48874;BME280;66155;46.204;5.220;2023-04-06T07:43:50;99018.28;;;8.85;42.59
48874;BME280;66155;46.204;5.220;2023-04-06T07:48:51;99019.38;;;8.77;42.82
48874;BME280;66155;46.204;5.220;2023-04-06T07:53:52;99024.56;;;8.53;45.18
48874;BME280;66155;46.204;5.220;2023-04-06T07:58:52;99023.91;;;8.58;44.60
48874;BME280;66155;46.204;5.220;2023-04-06T08:03:56;99025.00;;;8.74;44.24
48874;BME280;66155;46.204;5.220;2023-04-06T08:08:57;99032.16;;;8.79;44.32
48874;BME280;66155;46.204;5.220;2023-04-06T08:13:57;99036.69;;;8.83;44.34
48874;BME280;66155;46.204;5.220;2023-04-06T08:18:58;99028.19;;;9.00;44.27
48874;BME280;66155;46.204;5.220;2023-04-06T08:23:58;99027.63;;;8.98;44.34
48874;BME280;66155;46.204;5.220;2023-04-06T08:28:59;99022.97;;;9.23;43.96
48874;BME280;66155;46.204;5.220;2023-04-06T08:34:00;99022.44;;;9.50;43.71
48874;BME280;66155;46.204;5.220;2023-04-06T08:39:01;99021.63;;;9.61;43.38
48874;BME280;66155;46.204;5.220;2023-04-06T08:44:02;99021.22;;;9.81;43.17
48874;BME280;66155;46.204;5.220;2023-04-06T08:49:03;99022.59;;;10.01;43.12
48874;BME280;66155;46.204;5.220;2023-04-06T08:54:07;99022.88;;;10.16;42.23
48874;BME280;66155;46.204;5.220;2023-04-06T08:59:08;99018.22;;;10.35;42.20
48874;BME280;66155;46.204;5.220;2023-04-06T09:04:11;99023.84;;;10.61;41.71
48874;BME280;66155;46.204;5.220;2023-04-06T09:09:12;99016.31;;;10.81;40.74
48874;BME280;66155;46.204;5.220;2023-04-06T09:14:13;99021.03;;;11.01;40.78
48874;BME280;66155;46.204;5.220;2023-04-06T09:19:15;99015.53;;;11.20;40.62
48874;BME280;66155;46.204;5.220;2023-04-06T09:24:15;99011.28;;;11.36;40.38
48874;BME280;66155;46.204;5.220;2023-04-06T09:29:22;99006.03;;;11.58;39.81
48874;BME280;66155;46.204;5.220;2023-04-06T09:34:24;99004.63;;;11.72;39.09
48874;BME280;66155;46.204;5.220;2023-04-06T09:39:25;98995.34;;;11.82;38.65
48874;BME280;66155;46.204;5.220;2023-04-06T09:44:26;99013.28;;;12.00;38.67
48874;BME280;66155;46.204;5.220;2023-04-06T09:49:36;99016.09;;;12.26;37.43
48874;BME280;66155;46.204;5.220;2023-04-06T09:54:37;99004.03;;;12.52;37.61
48874;BME280;66155;46.204;5.220;2023-04-06T10:05:08;99018.19;;;12.56;35.44
48874;BME280;66155;46.204;5.220;2023-04-06T10:10:10;99010.16;;;12.68;35.44
48874;BME280;66155;46.204;5.220;2023-04-06T10:15:11;99017.28;;;12.78;33.09
48874;BME280;66155;46.204;5.220;2023-04-06T10:20:18;99018.69;;;12.96;34.69
48874;BME280;66155;46.204;5.220;2023-04-06T10:25:31;99011.44;;;13.13;33.46
48874;BME280;66155;46.204;5.220;2023-04-06T10:30:41;99018.88;;;13.31;32.99
48874;BME280;66155;46.204;5.220;2023-04-06T10:35:44;99013.13;;;13.35;33.91
48874;BME280;66155;46.204;5.220;2023-04-06T10:40:45;99019.72;;;13.47;33.24
48874;BME280;66155;46.204;5.220;2023-04-06T10:45:57;99016.31;;;13.47;31.96
48874;BME280;66155;46.204;5.220;2023-04-06T10:50:58;99005.59;;;13.54;32.85
48874;BME280;66155;46.204;5.220;2023-04-06T10:55:59;99006.69;;;13.68;32.79
48874;BME280;66155;46.204;5.220;2023-04-06T11:01:00;99010.66;;;13.81;32.52
48874;BME280;66155;46.204;5.220;2023-04-06T11:06:01;98995.75;;;14.02;31.43
48874;BME280;66155;46.204;5.220;2023-04-06T11:11:05;98998.63;;;14.26;31.80
48874;BME280;66155;46.204;5.220;2023-04-06T11:16:11;98989.94;;;14.51;31.74
48874;BME280;66155;46.204;5.220;2023-04-06T11:21:12;98989.16;;;14.56;31.30
48874;BME280;66155;46.204;5.220;2023-04-06T11:26:13;98982.38;;;14.50;31.20
48874;BME280;66155;46.204;5.220;2023-04-06T11:31:14;98978.41;;;14.57;31.00
48874;BME280;66155;46.204;5.220;2023-04-06T11:36:15;98972.34;;;14.77;30.92
48874;BME280;66155;46.204;5.220;2023-04-06T11:41:15;98972.84;;;14.90;30.80
48874;BME280;66155;46.204;5.220;2023-04-06T11:46:18;98977.56;;;14.93;30.66
48874;BME280;66155;46.204;5.220;2023-04-06T11:51:24;98978.59;;;14.92;30.41
48874;BME280;66155;46.204;5.220;2023-04-06T11:56:28;98971.63;;;15.32;30.51
48874;BME280;66155;46.204;5.220;2023-04-06T12:01:30;98954.09;;;15.67;30.06
48874;BME280;66155;46.204;5.220;2023-04-06T12:06:30;98933.19;;;15.91;29.92
48874;BME280;66155;46.204;5.220;2023-04-06T12:11:31;98932.25;;;16.11;29.88
48874;BME280;66155;46.204;5.220;2023-04-06T12:16:31;98927.66;;;16.22;29.55
48874;BME280;66155;46.204;5.220;2023-04-06T12:21:33;98918.22;;;16.21;29.31
48874;BME280;66155;46.204;5.220;2023-04-06T12:26:34;98911.66;;;16.18;29.16
48874;BME280;66155;46.204;5.220;2023-04-06T12:31:35;98913.28;;;16.14;29.51
48874;BME280;66155;46.204;5.220;2023-04-06T12:36:37;98916.66;;;16.20;29.44
48874;BME280;66155;46.204;5.220;2023-04-06T12:41:37;98910.84;;;16.23;28.96
48874;BME280;66155;46.204;5.220;2023-04-06T12:46:41;98914.00;;;15.95;28.47
48874;BME280;66155;46.204;5.220;2023-04-06T12:51:43;98904.09;;;15.82;28.18
48874;BME280;66155;46.204;5.220;2023-04-06T12:56:44;98906.09;;;15.95;28.32
48874;BME280;66155;46.204;5.220;2023-04-06T13:01:45;98909.38;;;16.11;28.26
48874;BME280;66155;46.204;5.220;2023-04-06T13:06:45;98903.06;;;16.12;27.83
48874;BME280;66155;46.204;5.220;2023-04-06T13:11:46;98897.75;;;16.18;27.91
48874;BME280;66155;46.204;5.220;2023-04-06T13:16:46;98897.44;;;16.24;27.02
48874;BME280;66155;46.204;5.220;2023-04-06T13:21:47;98898.34;;;16.39;27.67
48874;BME280;66155;46.204;5.220;2023-04-06T13:26:47;98895.09;;;16.47;26.76
48874;BME280;66155;46.204;5.220;2023-04-06T13:31:48;98893.16;;;16.28;26.91
48874;BME280;66155;46.204;5.220;2023-04-06T13:36:48;98886.31;;;16.57;27.06
48874;BME280;66155;46.204;5.220;2023-04-06T13:41:49;98892.56;;;16.61;26.85
48874;BME280;66155;46.204;5.220;2023-04-06T13:46:49;98892.84;;;16.35;27.21
48874;BME280;66155;46.204;5.220;2023-04-06T13:51:50;98892.50;;;16.18;27.09
48874;BME280;66155;46.204;5.220;2023-04-06T13:56:51;98891.81;;;16.07;27.36
48874;BME280;66155;46.204;5.220;2023-04-06T14:01:51;98898.88;;;16.11;27.53
48874;BME280;66155;46.204;5.220;2023-04-06T14:06:52;98891.09;;;16.25;27.50
48874;BME280;66155;46.204;5.220;2023-04-06T14:11:53;98896.31;;;16.30;27.53
48874;BME280;66155;46.204;5.220;2023-04-06T14:16:53;98884.75;;;16.31;27.21
48874;BME280;66155;46.204;5.220;2023-04-06T14:21:54;98888.53;;;16.68;27.02
48874;BME280;66155;46.204;5.220;2023-04-06T14:26:56;98875.78;;;17.00;27.15
48874;BME280;66155;46.204;5.220;2023-04-06T14:31:57;98869.69;;;17.23;26.60
48874;BME280;66155;46.204;5.220;2023-04-06T14:36:59;98863.56;;;17.28;26.42
48874;BME280;66155;46.204;5.220;2023-04-06T14:42:00;98861.66;;;17.85;26.18
48874;BME280;66155;46.204;5.220;2023-04-06T14:47:01;98869.97;;;17.93;25.79
48874;BME280;66155;46.204;5.220;2023-04-06T14:52:01;98863.16;;;18.19;25.87
48874;BME280;66155;46.204;5.220;2023-04-06T14:57:02;98866.69;;;17.82;24.82
48874;BME280;66155;46.204;5.220;2023-04-06T15:02:03;98861.66;;;17.66;25.66
48874;BME280;66155;46.204;5.220;2023-04-06T15:07:03;98859.66;;;17.58;25.54
48874;BME280;66155;46.204;5.220;2023-04-06T15:12:04;98854.56;;;17.48;25.85
48874;BME280;66155;46.204;5.220;2023-04-06T15:17:05;98858.44;;;17.37;25.55
48874;BME280;66155;46.204;5.220;2023-04-06T15:22:06;98857.66;;;17.36;25.45
48874;BME280;66155;46.204;5.220;2023-04-06T15:27:06;98861.78;;;17.75;25.58
48874;BME280;66155;46.204;5.220;2023-04-06T15:32:06;98855.13;;;18.11;25.19
48874;BME280;66155;46.204;5.220;2023-04-06T15:37:07;98848.97;;;18.43;25.07
48874;BME280;66155;46.204;5.220;2023-04-06T15:42:08;98863.72;;;18.02;25.39
48874;BME280;66155;46.204;5.220;2023-04-06T15:47:09;98856.97;;;17.63;25.50
48874;BME280;66155;46.204;5.220;2023-04-06T15:52:09;98856.81;;;17.22;25.91
48874;BME280;66155;46.204;5.220;2023-04-06T15:57:10;98862.06;;;16.84;26.48
48874;BME280;66155;46.204;5.220;2023-04-06T16:02:10;98871.13;;;16.72;26.59
48874;BME280;66155;46.204;5.220;2023-04-06T16:07:11;98855.72;;;16.61;26.62
48874;BME280;66155;46.204;5.220;2023-04-06T16:12:11;98860.56;;;16.53;26.98
48874;BME280;66155;46.204;5.220;2023-04-06T16:17:12;98849.41;;;16.62;27.11
48874;BME280;66155;46.204;5.220;2023-04-06T16:22:12;98846.06;;;16.32;27.21
48874;BME280;66155;46.204;5.220;2023-04-06T16:27:13;98841.94;;;16.26;27.69
48874;BME280;66155;46.204;5.220;2023-04-06T16:32:13;98853.69;;;16.33;27.75
48874;BME280;66155;46.204;5.220;2023-04-06T16:37:14;98839.09;;;17.27;27.78
48874;BME280;66155;46.204;5.220;2023-04-06T16:42:15;98829.28;;;18.91;26.41
48874;BME280;66155;46.204;5.220;2023-04-06T16:47:19;98829.59;;;18.75;26.31
48874;BME280;66155;46.204;5.220;2023-04-06T16:52:19;98836.78;;;18.19;26.68
48874;BME280;66155;46.204;5.220;2023-04-06T16:57:20;98843.88;;;17.91;27.15
48874;BME280;66155;46.204;5.220;2023-04-06T17:02:23;98844.78;;;17.35;27.25
48874;BME280;66155;46.204;5.220;2023-04-06T17:07:24;98862.47;;;16.91;27.82
48874;BME280;66155;46.204;5.220;2023-04-06T17:12:30;98846.91;;;16.51;28.77
48874;BME280;66155;46.204;5.220;2023-04-06T17:17:31;98860.63;;;15.95;30.28
48874;BME280;66155;46.204;5.220;2023-04-06T17:22:32;98857.97;;;15.66;31.16
48874;BME280;66155;46.204;5.220;2023-04-06T17:27:33;98854.16;;;15.53;31.33
48874;BME280;66155;46.204;5.220;2023-04-06T17:32:33;98865.91;;;15.21;32.43
48874;BME280;66155;46.204;5.220;2023-04-06T17:37:34;98852.66;;;14.97;32.58
48874;BME280;66155;46.204;5.220;2023-04-06T17:42:35;98851.41;;;14.89;32.77
48874;BME280;66155;46.204;5.220;2023-04-06T17:47:35;98849.28;;;14.91;32.80
48874;BME280;66155;46.204;5.220;2023-04-06T17:52:36;98845.41;;;14.83;33.10
48874;BME280;66155;46.204;5.220;2023-04-06T17:57:36;98854.34;;;14.77;33.40
48874;BME280;66155;46.204;5.220;2023-04-06T18:02:37;98845.94;;;14.80;32.76
48874;BME280;66155;46.204;5.220;2023-04-06T18:07:37;98873.47;;;14.78;33.20
48874;BME280;66155;46.204;5.220;2023-04-06T18:12:38;98873.78;;;14.71;33.22
48874;BME280;66155;46.204;5.220;2023-04-06T18:17:38;98874.56;;;14.72;33.25
48874;BME280;66155;46.204;5.220;2023-04-06T18:22:39;98886.91;;;14.66;33.01
48874;BME280;66155;46.204;5.220;2023-04-06T18:27:39;98886.16;;;14.60;33.48
48874;BME280;66155;46.204;5.220;2023-04-06T18:32:40;98882.97;;;14.63;33.49
48874;BME280;66155;46.204;5.220;2023-04-06T18:37:40;98884.56;;;14.59;33.38
48874;BME280;66155;46.204;5.220;2023-04-06T18:42:41;98889.78;;;14.64;33.34
48874;BME280;66155;46.204;5.220;2023-04-06T18:47:41;98882.94;;;14.69;33.71
48874;BME280;66155;46.204;5.220;2023-04-06T18:52:42;98893.94;;;14.71;33.84
48874;BME280;66155;46.204;5.220;2023-04-06T18:57:42;98895.03;;;14.64;33.85
48874;BME280;66155;46.204;5.220;2023-04-06T19:02:43;98900.53;;;14.63;33.75
48874;BME280;66155;46.204;5.220;2023-04-06T19:07:44;98900.53;;;14.63;33.71
48874;BME280;66155;46.204;5.220;2023-04-06T19:12:51;98896.88;;;14.64;33.97
48874;BME280;66155;46.204;5.220;2023-04-06T19:17:51;98893.44;;;14.69;34.16
48874;BME280;66155;46.204;5.220;2023-04-06T19:22:52;98885.31;;;14.70;34.15
48874;BME280;66155;46.204;5.220;2023-04-06T19:27:52;98897.66;;;14.70;34.19
48874;BME280;66155;46.204;5.220;2023-04-06T19:32:53;98899.75;;;14.68;34.22
48874;BME280;66155;46.204;5.220;2023-04-06T19:37:54;98890.81;;;14.69;34.32
48874;BME280;66155;46.204;5.220;2023-04-06T19:42:54;98899.19;;;14.71;34.29
48874;BME280;66155;46.204;5.220;2023-04-06T19:47:54;98896.56;;;14.71;34.18
48874;BME280;66155;46.204;5.220;2023-04-06T19:52:55;98889.50;;;14.71;34.34
48874;BME280;66155;46.204;5.220;2023-04-06T19:57:55;98890.03;;;14.68;34.21
48874;BME280;66155;46.204;5.220;2023-04-06T20:02:56;98892.69;;;14.63;34.76
48874;BME280;66155;46.204;5.220;2023-04-06T20:07:57;98888.22;;;14.58;34.77
48874;BME280;66155;46.204;5.220;2023-04-06T20:12:58;98887.44;;;14.58;34.77
48874;BME280;66155;46.204;5.220;2023-04-06T20:18:01;98885.06;;;14.56;35.08
48874;BME280;66155;46.204;5.220;2023-04-06T20:23:02;98884.53;;;14.54;35.04
48874;BME280;66155;46.204;5.220;2023-04-06T20:28:03;98872.78;;;14.52;35.42
48874;BME280;66155;46.204;5.220;2023-04-06T20:33:04;98878.28;;;14.50;35.41
48874;BME280;66155;46.204;5.220;2023-04-06T20:38:04;98871.44;;;14.49;35.29
48874;BME280;66155;46.204;5.220;2023-04-06T20:43:05;98870.44;;;14.45;35.25
48874;BME280;66155;46.204;5.220;2023-04-06T20:48:09;98867.56;;;14.36;35.73
48874;BME280;66155;46.204;5.220;2023-04-06T20:53:11;98869.44;;;14.25;36.13
48874;BME280;66155;46.204;5.220;2023-04-06T20:58:11;98876.25;;;14.21;35.95
48874;BME280;66155;46.204;5.220;2023-04-06T21:03:12;98871.00;;;14.21;36.21
48874;BME280;66155;46.204;5.220;2023-04-06T21:08:12;98869.94;;;14.22;35.96
48874;BME280;66155;46.204;5.220;2023-04-06T21:13:13;98871.00;;;14.21;36.31
48874;BME280;66155;46.204;5.220;2023-04-06T21:18:13;98864.44;;;14.19;36.22
48874;BME280;66155;46.204;5.220;2023-04-06T21:23:14;98848.75;;;14.14;36.40
48874;BME280;66155;46.204;5.220;2023-04-06T21:28:15;98842.75;;;14.03;36.67
48874;BME280;66155;46.204;5.220;2023-04-06T21:33:15;98829.13;;;13.85;36.82
48874;BME280;66155;46.204;5.220;2023-04-06T21:38:16;98828.38;;;13.75;37.05
48874;BME280;66155;46.204;5.220;2023-04-06T21:43:16;98828.38;;;13.75;36.96
48874;BME280;66155;46.204;5.220;2023-04-06T21:48:17;98824.19;;;13.74;37.23
48874;BME280;66155;46.204;5.220;2023-04-06T21:53:18;98823.41;;;13.68;37.29
48874;BME280;66155;46.204;5.220;2023-04-06T21:58:18;98821.56;;;13.53;37.38
48874;BME280;66155;46.204;5.220;2023-04-06T22:03:19;98820.00;;;13.37;37.43
48874;BME280;66155;46.204;5.220;2023-04-06T22:08:19;98822.84;;;13.30;36.83
48874;BME280;66155;46.204;5.220;2023-04-06T22:13:20;98821.78;;;13.21;37.24
48874;BME280;66155;46.204;5.220;2023-04-06T22:18:21;98813.41;;;13.13;37.18
48874;BME280;66155;46.204;5.220;2023-04-06T22:23:21;98810.03;;;13.13;37.16
48874;BME280;66155;46.204;5.220;2023-04-06T22:28:22;98810.28;;;13.11;36.85
48874;BME280;66155;46.204;5.220;2023-04-06T22:33:23;98806.84;;;13.11;37.26
48874;BME280;66155;46.204;5.220;2023-04-06T22:38:24;98801.34;;;13.07;37.09
48874;BME280;66155;46.204;5.220;2023-04-06T22:43:25;98799.53;;;13.08;36.74
48874;BME280;66155;46.204;5.220;2023-04-06T22:48:25;98777.81;;;13.12;37.35
48874;BME280;66155;46.204;5.220;2023-04-06T22:53:26;98767.88;;;13.20;37.06
48874;BME280;66155;46.204;5.220;2023-04-06T22:58:26;98768.94;;;13.13;37.18
48874;BME280;66155;46.204;5.220;2023-04-06T23:03:26;98779.91;;;13.00;37.67
48874;BME280;66155;46.204;5.220;2023-04-06T23:08:27;98763.16;;;12.91;37.84
48874;BME280;66155;46.204;5.220;2023-04-06T23:13:27;98766.00;;;12.84;37.78
48874;BME280;66155;46.204;5.220;2023-04-06T23:18:28;98753.72;;;12.69;38.12
48874;BME280;66155;46.204;5.220;2023-04-06T23:23:28;98750.31;;;12.69;38.05
48874;BME280;66155;46.204;5.220;2023-04-06T23:28:29;98756.34;;;12.74;38.26
48874;BME280;66155;46.204;5.220;2023-04-06T23:33:30;98756.09;;;12.81;38.17
48874;BME280;66155;46.204;5.220;2023-04-06T23:38:30;98731.50;;;12.87;38.00
48874;BME280;66155;46.204;5.220;2023-04-06T23:43:31;98732.28;;;12.88;37.86
48874;BME280;66155;46.204;5.220;2023-04-06T23:48:31;98720.00;;;12.88;37.96
48874;BME280;66155;46.204;5.220;2023-04-06T23:53:32;98728.13;;;12.92;38.06
48874;BME280;66155;46.204;5.220;2023-04-06T23:58:32;98714.25;;;12.81;38.36
